Terminal Aerodrome Forecast
Issued by NWS Jackson, KY

Home | Current Version | Previous Version | Text Only | Print | Product List | Glossary On
Versions: 1 2 3 4 5 6 7 8 9 10 11 12 13 14
000
FTUS43 KJKL 231738
TAFLOZ
TAF
KLOZ 231738Z 2318/2418 25013G22KT P6SM OVC045
     FM240000 26010KT 6SM -SHSNRA BR OVC025
     FM240700 27006KT P6SM OVC015=

USA.gov is the U.S. government's official web portal to all federal, state and local government web resources and services.